Time;durP1;ratioP1;P1;durP2;ratioP2;P2;SDS_P1;SDS_P2;PMS_P1;PMS_P2;Temp;Humidity;BMP_temperature;BMP_pressure;BME280_temperature;BME280_humidity;BME280_pressure;Samples;Min_cycle;Max_cycle;Signal;HPM_P1;HPM_P2
2021/04/01 00:00:52;;;;;;;1999.90;999.90;;;15.00;93.30;;;;;;6224738;23;20022;-96
2021/04/01 00:03:26;;;;;;;1999.90;999.90;;;15.00;94.20;;;;;;6223904;23;20021;-96
2021/04/01 00:06:02;;;;;;;1999.90;999.90;;;14.90;94.10;;;;;;6223857;23;20025;-96
2021/04/01 00:08:37;;;;;;;1999.90;999.90;;;14.90;94.10;;;;;;6224996;23;20312;-96
2021/04/01 00:11:18;;;;;;;1999.90;999.90;;;14.90;94.10;;;;;;6225752;23;20021;-96
2021/04/01 00:13:56;;;;;;;1999.90;999.90;;;14.80;94.00;;;;;;6224907;23;20024;-96
2021/04/01 00:16:35;;;;;;;1999.90;999.90;;;14.80;94.20;;;;;;6225528;23;20025;-96
2021/04/01 00:19:09;;;;;;;1999.90;999.90;;;14.80;94.60;;;;;;6225349;23;20340;-95
2021/04/01 00:21:49;;;;;;;1999.90;999.90;;;14.70;94.60;;;;;;6224486;23;20016;-96
2021/04/01 00:24:17;;;;;;;1999.90;999.90;;;14.70;94.60;;;;;;6222222;23;20021;-96
2021/04/01 00:26:49;;;;;;;1999.90;999.90;;;14.70;94.60;;;;;;6223351;23;20025;-96
2021/04/01 00:29:31;;;;;;;1999.90;999.90;;;14.70;94.70;;;;;;6222683;23;20495;-95
2021/04/01 00:32:11;;;;;;;1999.90;999.90;;;14.70;94.30;;;;;;6223382;23;20084;-96
2021/04/01 00:34:45;;;;;;;1999.90;999.90;;;14.60;95.10;;;;;;6224429;23;20028;-96
2021/04/01 00:37:22;;;;;;;1999.90;999.90;;;14.50;95.10;;;;;;6224661;23;20333;-96
2021/04/01 00:39:54;;;;;;;1999.90;999.90;;;14.60;94.90;;;;;;6224591;23;20043;-96
2021/04/01 00:42:26;;;;;;;1999.90;999.90;;;14.60;94.70;;;;;;6223806;23;20462;-96
2021/04/01 00:45:17;;;;;;;1999.90;999.90;;;14.60;94.60;;;;;;6224953;23;20020;-96
2021/04/01 00:48:06;;;;;;;1999.90;999.90;;;14.60;94.60;;;;;;6224967;23;20043;-96
2021/04/01 00:51:35;;;;;;;1999.90;999.90;;;14.60;94.50;;;;;;6227708;23;20040;-96
2021/04/01 00:54:28;;;;;;;1999.90;999.90;;;14.60;94.50;;;;;;6229717;23;20025;-96
2021/04/01 00:57:18;;;;;;;1999.90;999.90;;;14.60;94.30;;;;;;6228009;23;20341;-96
2021/04/01 01:00:15;;;;;;;1999.90;999.90;;;14.60;94.40;;;;;;6227007;23;20036;-96
2021/04/01 01:03:02;;;;;;;1999.90;999.90;;;14.50;94.40;;;;;;6228448;23;20103;-96
2021/04/01 01:05:42;;;;;;;1999.90;999.90;;;14.60;94.40;;;;;;6227488;23;20021;-96
2021/04/01 01:08:23;;;;;;;;;;;14.60;94.30;;;;;;6228465;23;20032;-96
2021/04/01 01:11:29;;;;;;;1999.90;999.90;;;14.60;94.30;;;;;;6189701;23;19923;-96
2021/04/01 01:14:32;;;;;;;1999.90;999.90;;;14.50;94.00;;;;;;6205714;23;20025;-96
2021/04/01 01:17:04;;;;;;;1999.90;999.90;;;14.50;94.10;;;;;;6224203;23;20111;-96
2021/04/01 01:19:57;;;;;;;1999.90;999.90;;;14.50;94.00;;;;;;6223002;23;20032;-96
2021/04/01 01:22:36;;;;;;;1999.90;999.90;;;14.50;93.90;;;;;;6223289;23;20031;-96
2021/04/01 01:28:36;;;;;;;1999.90;999.90;;;14.40;93.20;;;;;;6211117;23;20024;-96
2021/04/01 01:31:49;;;;;;;1999.90;999.90;;;14.40;92.20;;;;;;6227045;23;20051;-96
2021/04/01 01:35:10;;;;;;;1999.90;999.90;;;14.30;91.90;;;;;;6226452;23;20024;-96
2021/04/01 01:41:33;;;;;;;1999.90;999.90;;;14.40;91.80;;;;;;6165867;23;20035;-96
2021/04/01 01:48:07;;;;;;;1999.90;999.90;;;14.40;92.00;;;;;;6226748;23;20048;-96
2021/04/01 01:50:48;;;;;;;1999.90;999.90;;;14.40;91.90;;;;;;6226438;23;20032;-96
2021/04/01 01:53:38;;;;;;;;;;;;;;;;;;;;;
2021/04/01 01:56:37;;;;;;;1999.90;999.90;;;14.30;92.20;;;;;;6225739;23;20084;-96
2021/04/01 01:59:16;;;;;;;1999.90;999.90;;;14.30;92.10;;;;;;6218928;23;20026;-94
2021/04/01 02:01:59;;;;;;;1999.90;999.90;;;14.30;92.20;;;;;;6219014;23;20021;-95
2021/04/01 02:08:17;;;;;;;1999.90;999.90;;;14.20;92.40;;;;;;6219157;23;20024;-95
2021/04/01 02:11:04;;;;;;;1999.90;999.90;;;14.20;92.50;;;;;;6218096;23;20090;-95
2021/04/01 02:14:07;;;;;;;1999.90;999.90;;;14.20;92.50;;;;;;6219014;23;20029;-95
2021/04/01 02:23:27;;;;;;;1999.90;999.90;;;14.00;92.90;;;;;;6218559;23;20024;-94
2021/04/01 02:26:08;;;;;;;1999.90;999.90;;;13.90;93.00;;;;;;6218582;23;20398;-95
2021/04/01 02:28:47;;;;;;;1999.90;999.90;;;13.90;93.10;;;;;;6218297;23;20448;-95
2021/04/01 02:31:36;;;;;;;1999.90;999.90;;;13.90;93.10;;;;;;6218202;23;20100;-95
2021/04/01 02:34:24;;;;;;;1999.90;999.90;;;13.90;93.10;;;;;;6219548;23;20031;-95
2021/04/01 02:37:14;;;;;;;1999.90;999.90;;;13.80;93.00;;;;;;6219305;23;20025;-96
2021/04/01 02:40:26;;;;;;;1999.90;999.90;;;13.80;93.20;;;;;;6201851;23;20462;-96
2021/04/01 02:46:08;;;;;;;1999.90;999.90;;;13.60;93.40;;;;;;6188227;23;20107;-96
2021/04/01 02:48:42;;;;;;;1999.90;999.90;;;13.60;93.50;;;;;;6218527;23;20024;-95
2021/04/01 02:51:14;;;;;;;1999.90;999.90;;;13.50;93.60;;;;;;6218375;23;20024;-95
2021/04/01 02:53:48;;;;;;;1999.90;999.90;;;13.50;93.70;;;;;;6219526;23;20041;-94
2021/04/01 02:56:26;;;;;;;1999.90;999.90;;;13.40;93.80;;;;;;6218426;23;20031;-95
2021/04/01 02:59:02;;;;;;;1999.90;999.90;;;13.40;94.00;;;;;;6218657;23;20032;-95
2021/04/01 03:01:39;;;;;;;1999.90;999.90;;;13.20;94.30;;;;;;6217168;23;20028;-95
2021/04/01 03:04:34;;;;;;;1999.90;999.90;;;13.20;94.50;;;;;;6217841;23;20024;-95
2021/04/01 03:07:17;;;;;;;1999.90;999.90;;;13.10;94.40;;;;;;6218897;23;20024;-95
2021/04/01 03:17:17;;;;;;;1999.90;999.90;;;13.00;94.80;;;;;;6187156;23;20019;-95
2021/04/01 03:20:04;;;;;;;1999.90;999.90;;;12.80;95.10;;;;;;6218311;23;20024;-96
2021/04/01 03:22:49;;;;;;;1999.90;999.90;;;12.80;95.20;;;;;;6217981;23;20020;-95
2021/04/01 03:25:25;;;;;;;1999.90;999.90;;;12.80;95.30;;;;;;6218794;23;20020;-95
2021/04/01 03:28:04;;;;;;;1999.90;999.90;;;12.70;95.30;;;;;;6218104;23;20024;-94
2021/04/01 03:30:46;;;;;;;1999.90;999.90;;;12.70;95.30;;;;;;6220201;23;20028;-95
2021/04/01 03:33:41;;;;;;;;;;;;;;;;;;;;;
2021/04/01 03:36:21;;;;;;;1999.90;999.90;;;12.50;96.00;;;;;;6217670;23;20024;-95
2021/04/01 03:39:22;;;;;;;1999.90;999.90;;;12.50;96.20;;;;;;6068430;23;20023;-95
2021/04/01 03:41:57;;;;;;;1999.90;999.90;;;12.40;96.50;;;;;;6068739;23;20045;-94
2021/04/01 03:44:37;;;;;;;;;;;12.40;96.50;;;;;;6069104;23;20465;-95
2021/04/01 03:47:16;;;;;;;1999.90;999.90;;;12.40;96.50;;;;;;6068302;23;19917;-95
2021/04/01 03:49:58;;;;;;;1999.90;999.90;;;12.30;96.50;;;;;;6068219;23;20093;-95
2021/04/01 03:52:47;;;;;;;1999.90;999.90;;;12.30;96.50;;;;;;6068925;23;20030;-95
2021/04/01 03:55:36;;;;;;;1999.90;999.90;;;12.30;96.60;;;;;;6068164;23;20023;-95
2021/04/01 04:04:58;;;;;;;1999.90;999.90;;;12.20;96.50;;;;;;5135508;27;20056;-96
2021/04/01 04:10:44;;;;;;;1999.90;999.90;;;12.10;96.40;;;;;;5135788;28;20036;-96
2021/04/01 04:13:45;;;;;;;1999.90;999.90;;;12.10;96.50;;;;;;5138719;27;20052;-96
2021/04/01 04:20:30;;;;;;;1999.90;999.90;;;11.90;97.10;;;;;;5117644;27;20069;-94
2021/04/01 04:23:42;;;;;;;;;;;;;;;;;;;;;
2021/04/01 04:37:44;;;;;;;1999.90;999.90;;;11.70;97.30;;;;;;5013065;28;20088;-96
2021/04/01 04:44:10;;;;;;;1999.90;999.90;;;11.60;97.60;;;;;;4996519;28;20049;-94
2021/04/01 04:46:56;;;;;;;1999.90;999.90;;;11.60;97.70;;;;;;5010279;28;20058;-94
2021/04/01 04:49:46;;;;;;;1999.90;999.90;;;11.60;97.70;;;;;;5008558;28;20065;-95
2021/04/01 04:52:32;;;;;;;1999.90;999.90;;;11.50;98.20;;;;;;5009882;28;20145;-94
2021/04/01 04:55:24;;;;;;;;;;;;;;;;;;;;;
2021/04/01 04:58:03;;;;;;;1999.90;999.90;;;11.50;98.60;;;;;;5090148;28;20052;-94
2021/04/01 05:06:53;;;;;;;1999.90;999.90;;;11.40;99.00;;;;;;5132717;28;20058;-96
2021/04/01 05:09:24;;;;;;;1999.90;999.90;;;11.30;99.70;;;;;;5132957;28;20065;-93
2021/04/01 05:11:52;;;;;;;1999.90;999.90;;;11.30;99.90;;;;;;5121055;28;20055;-93
2021/04/01 05:14:20;;;;;;;1999.90;999.90;;;11.20;99.90;;;;;;5118015;28;20082;-93
2021/04/01 05:16:50;;;;;;;1999.90;999.90;;;11.20;99.90;;;;;;5118311;28;20051;-93
2021/04/01 05:19:20;;;;;;;1999.90;999.90;;;11.10;99.90;;;;;;5118561;28;20040;-93
2021/04/01 05:21:52;;;;;;;1999.90;999.90;;;11.10;99.90;;;;;;5118766;28;20490;-93
2021/04/01 05:24:21;;;;;;;1999.90;999.90;;;11.00;99.90;;;;;;5118243;28;20058;-93
2021/04/01 05:29:34;;;;;;;1999.90;999.90;;;10.90;99.90;;;;;;5117871;28;20494;-93
2021/04/01 05:32:04;;;;;;;1999.90;999.90;;;11.00;99.90;;;;;;5118387;28;20108;-93
2021/04/01 05:34:31;;;;;;;1999.90;999.90;;;11.00;99.90;;;;;;5118466;28;20047;-93
2021/04/01 05:37:00;;;;;;;1999.90;999.90;;;11.10;99.90;;;;;;5117583;28;20048;-93
2021/04/01 05:39:29;;;;;;;1999.90;999.90;;;11.10;99.90;;;;;;5117981;28;20073;-96
2021/04/01 05:41:58;;;;;;;1999.90;999.90;;;11.20;99.90;;;;;;5118405;28;20100;-94
2021/04/01 05:44:31;;;;;;;1999.90;999.90;;;11.10;99.90;;;;;;5118487;28;20142;-94
2021/04/01 05:47:05;;;;;;;1999.90;999.90;;;11.10;99.90;;;;;;5118758;28;20062;-94
2021/04/01 05:49:49;;;;;;;1999.90;999.90;;;11.10;99.90;;;;;;5118473;28;20130;-93
2021/04/01 05:58:27;;;;;;;1999.90;999.90;;;11.10;99.90;;;;;;5119096;28;20058;-94
2021/04/01 06:03:53;;;;;;;1999.90;999.90;;;11.00;99.90;;;;;;5115616;27;20051;-94
2021/04/01 06:06:26;;;;;;;1999.90;999.90;;;11.00;99.90;;;;;;5117514;28;20082;-94
2021/04/01 06:08:59;;;;;;;1999.90;999.90;;;11.00;99.90;;;;;;5117560;28;20108;-94
2021/04/01 06:11:27;;;;;;;1999.90;999.90;;;10.90;99.90;;;;;;5117815;28;20398;-95
2021/04/01 06:14:10;;;;;;;1999.90;999.90;;;10.90;99.90;;;;;;5117275;28;20067;-93
2021/04/01 06:16:40;;;;;;;1999.90;999.90;;;10.80;99.90;;;;;;5117359;28;20051;-95
2021/04/01 06:19:10;;;;;;;1999.90;999.90;;;10.80;99.90;;;;;;5117555;28;20074;-94
2021/04/01 06:21:42;;;;;;;1999.90;999.90;;;10.80;99.90;;;;;;5117377;28;20096;-94
2021/04/01 06:24:22;;;;;;;1999.90;999.90;;;10.80;99.90;;;;;;5115649;28;20059;-93
2021/04/01 06:27:00;;;;;;;1999.90;999.90;;;10.70;99.90;;;;;;5117355;28;20469;-94
2021/04/01 06:29:35;;;;;;;1999.90;999.90;;;10.70;99.90;;;;;;5116763;28;20448;-94
2021/04/01 06:32:03;;;;;;;1999.90;999.90;;;10.70;99.90;;;;;;5116921;28;20082;-93
2021/04/01 06:34:37;;;;;;;1999.90;999.90;;;10.60;99.90;;;;;;5116915;28;20505;-94
2021/04/01 06:37:05;;;;;;;1999.90;999.90;;;10.60;99.90;;;;;;5116891;28;20051;-95
2021/04/01 06:39:32;;;;;;;1999.90;999.90;;;10.60;99.90;;;;;;5116447;28;20043;-94
2021/04/01 06:42:05;;;;;;;1999.90;999.90;;;10.50;99.90;;;;;;5117597;28;20097;-93
2021/04/01 06:44:39;;;;;;;1999.90;999.90;;;10.50;99.90;;;;;;5116624;28;20060;-94
2021/04/01 06:47:14;;;;;;;1999.90;999.90;;;10.50;99.90;;;;;;5117000;28;20078;-94
2021/04/01 06:49:59;;;;;;;1999.90;999.90;;;10.50;99.90;;;;;;5116650;28;20052;-93
2021/04/01 06:52:33;;;;;;;1999.90;999.90;;;10.40;99.90;;;;;;5117563;28;20112;-94
2021/04/01 06:55:11;;;;;;;1999.90;999.90;;;10.40;99.90;;;;;;5117667;28;20051;-95
2021/04/01 07:00:56;;;;;;;1999.90;999.90;;;10.40;99.90;;;;;;5115223;28;20047;-93
2021/04/01 07:03:38;;;;;;;1999.90;999.90;;;10.50;99.90;;;;;;5116980;28;20079;-94
2021/04/01 07:06:09;;;;;;;1999.90;999.90;;;10.40;99.90;;;;;;5116577;28;20142;-94
2021/04/01 07:08:45;;;;;;;1999.90;999.90;;;10.30;99.90;;;;;;5117724;28;20079;-93
2021/04/01 07:11:39;;;;;;;1999.90;999.90;;;10.30;99.90;;;;;;5117498;28;20051;-94
2021/04/01 07:17:24;;;;;;;1999.90;999.90;;;10.30;99.90;;;;;;5116108;28;20558;-95
2021/04/01 07:48:04;;;;;;;1999.90;999.90;;;10.30;99.90;;;;;;5115747;28;20100;-95
2021/04/01 07:50:38;;;;;;;1999.90;999.90;;;10.30;99.90;;;;;;5118748;28;20048;-95
2021/04/01 07:53:06;;;;;;;1999.90;999.90;;;10.40;99.90;;;;;;5119304;28;20051;-96
2021/04/01 07:55:57;;;;;;;1999.90;999.90;;;10.40;99.90;;;;;;5119893;28;20077;-95
2021/04/01 08:01:21;;;;;;;1999.90;999.90;;;10.40;99.90;;;;;;5102636;28;20055;-95
2021/04/01 08:03:54;;;;;;;1999.90;999.90;;;10.50;99.90;;;;;;5116652;28;20056;-95
2021/04/01 08:06:38;;;;;;;1999.90;999.90;;;10.50;99.90;;;;;;5117429;28;20051;-95
2021/04/01 08:09:48;;;;;;;1999.90;999.90;;;10.50;99.90;;;;;;5119683;28;20058;-95
2021/04/01 08:13:02;;;;;;;1999.90;999.90;;;10.50;99.90;;;;;;5117654;28;20128;-95
2021/04/01 08:19:22;;;;;;;1999.90;999.90;;;10.60;99.90;;;;;;5107766;28;20058;-96
2021/04/01 08:22:20;;;;;;;1999.90;999.90;;;10.70;99.90;;;;;;5118911;28;20059;-96
2021/04/01 08:25:16;;;;;;;1999.90;999.90;;;10.60;99.90;;;;;;5120876;28;20366;-96
2021/04/01 08:28:22;;;;;;;1999.90;999.90;;;10.60;99.90;;;;;;5118345;28;20044;-95
2021/04/01 08:31:37;;;;;;;1999.90;999.90;;;10.60;99.90;;;;;;5120063;28;20454;-95
2021/04/01 08:34:39;;;;;;;1999.90;999.90;;;10.60;99.90;;;;;;5119201;28;20071;-95
2021/04/01 08:37:33;;;;;;;1999.90;999.90;;;10.50;99.90;;;;;;5119823;28;20066;-95
2021/04/01 08:40:25;;;;;;;1999.90;999.90;;;10.50;99.90;;;;;;5120076;28;20135;-96
2021/04/01 08:43:43;;;;;;;1999.90;999.90;;;10.50;99.90;;;;;;5119263;28;20047;-95
2021/04/01 08:47:03;;;;;;;1999.90;999.90;;;10.60;99.90;;;;;;5119938;28;20104;-95
2021/04/01 08:49:53;;;;;;;1999.90;999.90;;;10.60;99.90;;;;;;5129283;28;20055;-96
2021/04/01 08:53:07;;;;;;;1999.90;999.90;;;10.60;99.90;;;;;;5129763;28;20048;-96
2021/04/01 08:55:40;;;;;;;1999.90;999.90;;;10.60;99.90;;;;;;5057874;28;20053;-96
2021/04/01 08:58:21;;;;;;;1999.90;999.90;;;10.60;99.90;;;;;;5131303;28;20051;-96
2021/04/01 09:01:05;;;;;;;1999.90;999.90;;;10.70;99.90;;;;;;5129706;28;20054;-96
2021/04/01 09:03:39;;;;;;;1999.90;999.90;;;10.80;99.90;;;;;;5131404;28;20071;-96
2021/04/01 09:06:42;;;;;;;1999.90;999.90;;;10.80;99.90;;;;;;5131574;28;20068;-95
2021/04/01 09:09:33;;;;;;;1999.90;999.90;;;10.80;99.90;;;;;;5132199;28;20058;-96
2021/04/01 09:12:22;;;;;;;1999.90;999.90;;;10.80;99.90;;;;;;5131421;28;20052;-96
2021/04/01 09:15:35;;;;;;;1999.90;999.90;;;10.80;99.90;;;;;;5132342;28;20047;-96
2021/04/01 09:18:40;;;;;;;1999.90;999.90;;;10.90;99.90;;;;;;5134183;28;20115;-96
2021/04/01 09:21:21;;;;;;;1999.90;999.90;;;10.90;99.90;;;;;;5135059;28;20043;-96
2021/04/01 09:24:13;;;;;;;1999.90;999.90;;;11.10;99.90;;;;;;5135617;28;20067;-96
2021/04/01 09:27:00;;;;;;;1999.90;999.90;;;11.00;99.90;;;;;;5134361;28;20056;-96
2021/04/01 09:29:44;;;;;;;1999.90;999.90;;;11.10;99.90;;;;;;5132359;28;20127;-96
2021/04/01 09:32:21;;;;;;;1999.90;999.90;;;11.00;99.90;;;;;;5134182;28;20119;-96
2021/04/01 09:35:13;;;;;;;1999.90;999.90;;;11.10;99.90;;;;;;5132899;28;20052;-96
2021/04/01 09:38:07;;;;;;;1999.90;999.90;;;11.10;99.90;;;;;;5136609;28;20047;-96
2021/04/01 09:41:10;;;;;;;1999.90;999.90;;;11.10;99.90;;;;;;5131672;28;20051;-96
2021/04/01 09:43:52;;;;;;;1999.90;999.90;;;11.00;99.90;;;;;;5133878;28;20075;-96
2021/04/01 09:46:24;;;;;;;1999.90;999.90;;;11.00;99.90;;;;;;5134226;28;20052;-96
2021/04/01 09:52:13;;;;;;;1999.90;999.90;;;11.10;99.90;;;;;;5124044;28;20062;-95
2021/04/01 09:54:53;;;;;;;1999.90;999.90;;;11.10;99.90;;;;;;5117417;28;20484;-95
2021/04/01 09:57:21;;;;;;;1999.90;999.90;;;11.00;99.90;;;;;;5117267;28;20052;-95
2021/04/01 09:59:50;;;;;;;1999.90;999.90;;;11.00;99.90;;;;;;5116983;28;20075;-94
2021/04/01 10:02:30;;;;;;;1999.90;999.90;;;11.00;99.90;;;;;;5116812;28;20452;-95
2021/04/01 10:05:07;;;;;;;1999.90;999.90;;;10.90;99.90;;;;;;5116965;28;20059;-94
2021/04/01 10:07:50;;;;;;;1999.90;999.90;;;11.00;99.90;;;;;;5117741;28;20109;-96
2021/04/01 10:10:34;;;;;;;1999.90;999.90;;;11.00;99.90;;;;;;5116796;28;20455;-95
2021/04/01 10:13:01;;;;;;;1999.90;999.90;;;11.10;99.90;;;;;;5117892;28;20043;-94
2021/04/01 10:15:30;;;;;;;1999.90;999.90;;;11.10;99.90;;;;;;5116996;28;20078;-95
2021/04/01 10:18:04;;;;;;;1999.90;999.90;;;11.20;99.90;;;;;;5116752;28;20101;-94
2021/04/01 10:20:35;;;;;;;1999.90;999.90;;;11.20;99.90;;;;;;5116739;28;20047;-95
2021/04/01 10:23:08;;;;;;;1999.90;999.90;;;11.30;99.90;;;;;;5116478;28;20090;-94
2021/04/01 10:25:46;;;;;;;1999.90;999.90;;;11.40;99.90;;;;;;5116445;28;20056;-95
2021/04/01 10:28:35;;;;;;;1999.90;999.90;;;11.40;99.90;;;;;;5117241;28;20409;-95
2021/04/01 10:31:17;;;;;;;1999.90;999.90;;;11.50;99.90;;;;;;5116780;28;20046;-95
2021/04/01 10:34:05;;;;;;;1999.90;999.90;;;11.40;99.90;;;;;;5116865;28;20047;-95
2021/04/01 10:36:33;;;;;;;1999.90;999.90;;;11.50;99.90;;;;;;5116704;28;20051;-95
2021/04/01 10:39:16;;;;;;;1999.90;999.90;;;11.40;99.90;;;;;;5116687;28;20067;-94
2021/04/01 10:41:49;;;;;;;1999.90;999.90;;;11.50;99.90;;;;;;5116959;28;20044;-95
2021/04/01 10:44:17;;;;;;;1999.90;999.90;;;11.40;99.90;;;;;;5116368;28;20056;-96
2021/04/01 10:46:50;;;;;;;1999.90;999.90;;;11.40;99.90;;;;;;5116077;28;20048;-95
2021/04/01 10:49:23;;;;;;;1999.90;999.90;;;11.50;99.90;;;;;;5116763;28;20051;-95
2021/04/01 10:51:53;;;;;;;1999.90;999.90;;;11.60;99.90;;;;;;5116668;28;20040;-95
2021/04/01 10:54:35;;;;;;;1999.90;999.90;;;11.70;99.90;;;;;;5116358;28;20086;-94
2021/04/01 10:57:03;;;;;;;1999.90;999.90;;;11.60;99.90;;;;;;5116082;28;20497;-94
2021/04/01 10:59:41;;;;;;;1999.90;999.90;;;11.70;99.90;;;;;;5116065;28;20055;-95
2021/04/01 11:02:17;;;;;;;1999.90;999.90;;;11.70;99.90;;;;;;5115818;28;20490;-95
2021/04/01 11:04:51;;;;;;;1999.90;999.90;;;11.80;99.90;;;;;;5117147;28;20055;-95
2021/04/01 11:07:20;;;;;;;1999.90;999.90;;;11.90;99.90;;;;;;5116167;28;20057;-95
2021/04/01 11:09:49;;;;;;;1999.90;999.90;;;11.90;99.90;;;;;;5115692;28;20059;-95
2021/04/01 11:12:22;;;;;;;1999.90;999.90;;;11.90;99.90;;;;;;5125088;28;20074;-95
2021/04/01 11:14:52;;;;;;;1999.90;999.90;;;11.90;99.90;;;;;;5125651;28;20074;-95
2021/04/01 11:17:22;;;;;;;1999.90;999.90;;;11.90;99.90;;;;;;5119547;28;20134;-95
2021/04/01 11:19:57;;;;;;;1999.90;999.90;;;11.80;99.90;;;;;;5105561;28;20060;-95
2021/04/01 11:22:27;;;;;;;1999.90;999.90;;;11.90;99.90;;;;;;5095458;28;20496;-95
2021/04/01 11:25:03;;;;;;;1999.90;999.90;;;12.00;99.90;;;;;;5095589;28;20072;-95
2021/04/01 11:27:31;;;;;;;1999.90;999.90;;;12.00;99.90;;;;;;5095779;28;20059;-95
2021/04/01 11:30:00;;;;;;;1999.90;999.90;;;12.00;99.90;;;;;;5111802;28;20051;-95
2021/04/01 11:32:32;;;;;;;1999.90;999.90;;;12.00;99.90;;;;;;5115289;28;20052;-95
2021/04/01 11:35:02;;;;;;;1999.90;999.90;;;12.10;99.90;;;;;;5115743;28;20124;-95
2021/04/01 11:37:33;;;;;;;1999.90;999.90;;;12.00;99.90;;;;;;5115758;28;20104;-95
2021/04/01 11:40:08;;;;;;;1999.90;999.90;;;12.00;99.90;;;;;;5115836;28;20052;-96
2021/04/01 11:42:37;;;;;;;1999.90;999.90;;;12.00;99.90;;;;;;5115970;28;20043;-95
2021/04/01 11:45:07;;;;;;;1999.90;999.90;;;12.10;99.90;;;;;;5115810;28;20401;-95
2021/04/01 11:47:35;;;;;;;1999.90;999.90;;;12.00;99.90;;;;;;5115809;28;20056;-95
2021/04/01 11:50:07;;;;;;;1999.90;999.90;;;12.00;99.90;;;;;;5115684;28;20139;-95
2021/04/01 11:52:40;;;;;;;1999.90;999.90;;;12.00;99.90;;;;;;5115698;28;20071;-95
2021/04/01 11:55:13;;;;;;;1999.90;999.90;;;12.10;99.90;;;;;;5115896;28;20117;-95
2021/04/01 11:57:44;;;;;;;1999.90;999.90;;;12.00;99.80;;;;;;5115233;28;20152;-95
2021/04/01 12:00:30;;;;;;;1999.90;999.90;;;12.00;99.90;;;;;;5114948;28;20051;-95
2021/04/01 12:03:06;;;;;;;1999.90;999.90;;;12.10;99.90;;;;;;5114968;28;20059;-94
2021/04/01 12:05:39;;;;;;;1999.90;999.90;;;12.10;99.90;;;;;;5114812;28;20055;-94
2021/04/01 12:08:08;;;;;;;;;;;12.10;99.90;;;;;;5116429;28;20066;-95
2021/04/01 12:10:44;;;;;;;1999.90;999.90;;;12.10;99.90;;;;;;5114718;28;19926;-94
2021/04/01 12:13:19;;;;;;;1999.90;999.90;;;12.20;99.90;;;;;;5115191;28;20071;-95
2021/04/01 12:15:49;;;;;;;1999.90;999.90;;;12.20;99.90;;;;;;5115357;28;20105;-95
2021/04/01 12:18:17;;;;;;;1999.90;999.90;;;12.30;99.80;;;;;;5115213;28;20101;-95
2021/04/01 12:20:49;;;;;;;1999.90;999.90;;;12.30;99.90;;;;;;5115091;28;20043;-95
2021/04/01 12:23:20;;;;;;;1999.90;999.90;;;12.30;99.70;;;;;;5119164;28;20056;-95
2021/04/01 12:25:56;;;;;;;1999.90;999.90;;;12.40;99.90;;;;;;5119037;28;20047;-95
2021/04/01 12:28:25;;;;;;;1999.90;999.90;;;12.50;99.90;;;;;;5120004;28;20051;-94
2021/04/01 12:30:56;;;;;;;1999.90;999.90;;;12.50;99.50;;;;;;5119273;28;20062;-96
2021/04/01 12:33:26;;;;;;;1999.90;999.90;;;12.50;98.60;;;;;;5116049;28;20052;-96
2021/04/01 12:36:07;;;;;;;1999.90;999.90;;;12.40;98.70;;;;;;5098306;28;20091;-96
2021/04/01 12:38:37;;;;;;;1999.90;999.90;;;12.30;99.20;;;;;;5099019;28;20056;-95
2021/04/01 12:41:11;;;;;;;1999.90;999.90;;;12.30;99.00;;;;;;5097982;28;20135;-94
2021/04/01 12:43:48;;;;;;;1999.90;999.90;;;12.40;99.60;;;;;;5098453;28;20064;-95
2021/04/01 12:46:17;;;;;;;1999.90;999.90;;;12.40;98.20;;;;;;5098378;28;20764;-95
2021/04/01 12:48:51;;;;;;;1999.90;999.90;;;12.40;98.60;;;;;;5097689;28;20052;-95
2021/04/01 12:51:20;;;;;;;1999.90;999.90;;;12.40;98.60;;;;;;5098781;28;20106;-94
2021/04/01 12:54:07;;;;;;;1999.90;999.90;;;12.50;98.00;;;;;;5104255;28;20051;-94
2021/04/01 12:56:36;;;;;;;1999.90;999.90;;;12.40;98.10;;;;;;5103791;28;20142;-94
2021/04/01 12:59:06;;;;;;;1999.90;999.90;;;12.50;98.60;;;;;;5110952;28;20059;-94
2021/04/01 13:01:38;;;;;;;1999.90;999.90;;;12.70;98.00;;;;;;5111617;28;20215;-94
2021/04/01 13:04:07;;;;;;;1999.90;999.90;;;12.70;97.40;;;;;;5104363;28;20059;-94
2021/04/01 13:06:48;;;;;;;1999.90;999.90;;;12.70;97.20;;;;;;5118448;28;20047;-95
2021/04/01 13:09:35;;;;;;;1999.90;999.90;;;12.80;97.40;;;;;;5104832;28;20108;-94
2021/04/01 13:12:12;;;;;;;1999.90;999.90;;;12.90;97.20;;;;;;5117714;28;20375;-95
2021/04/01 13:15:08;;;;;;;1999.90;999.90;;;12.90;96.30;;;;;;5118886;28;20077;-95
2021/04/01 13:28:52;;;;;;;1999.90;999.90;;;13.30;95.90;;;;;;5045220;28;20053;-95
2021/04/01 13:35:08;;;;;;;1999.90;999.90;;;13.30;94.20;;;;;;4986519;28;20475;-96
2021/04/01 14:13:27;;;;;;;1999.90;999.90;;;13.80;91.60;;;;;;4974453;28;20090;-96
2021/04/01 14:16:41;;;;;;;1999.90;999.90;;;13.90;91.70;;;;;;4949715;28;20521;-95
2021/04/01 14:19:12;;;;;;;1999.90;999.90;;;14.30;91.00;;;;;;4993886;28;20050;-95
2021/04/01 14:22:25;;;;;;;1999.90;999.90;;;14.30;90.20;;;;;;5034000;28;20049;-96
2021/04/01 14:28:31;;;;;;;1999.90;999.90;;;14.40;90.10;;;;;;5009164;28;20128;-95
2021/04/01 14:31:17;;;;;;;1999.90;999.90;;;14.40;90.60;;;;;;5096188;28;20052;-94
2021/04/01 14:33:57;;;;;;;1999.90;999.90;;;14.60;90.20;;;;;;5096069;28;20136;-95
2021/04/01 14:48:15;;;;;;;1999.90;999.90;;;15.40;83.90;;;;;;5084490;28;20055;-95
2021/04/01 14:51:16;;;;;;;;;;;;;;;;;;;;;
2021/04/01 14:54:08;;;;;;;1999.90;999.90;;;15.40;85.70;;;;;;5115805;28;20093;-96
2021/04/01 14:59:46;;;;;;;1999.90;999.90;;;15.30;83.60;;;;;;5085168;28;20483;-96
2021/04/01 15:06:13;;;;;;;1999.90;999.90;;;15.30;84.70;;;;;;5095797;28;20055;-95
2021/04/01 15:09:07;;;;;;;1999.90;999.90;;;15.10;82.30;;;;;;5093957;28;20056;-95
2021/04/01 15:12:17;;;;;;;1999.90;999.90;;;15.20;83.90;;;;;;5093816;28;20048;-94
2021/04/01 15:15:18;;;;;;;1999.90;999.90;;;15.30;83.80;;;;;;5095899;28;20383;-95
2021/04/01 15:21:51;;;;;;;1999.90;999.90;;;15.50;83.80;;;;;;5093198;28;20048;-96
2021/04/01 15:28:17;;;;;;;1999.90;999.90;;;15.70;84.30;;;;;;5083244;28;20063;-96
2021/04/01 15:44:55;;;;;;;1999.90;999.90;;;15.80;80.60;;;;;;5081524;28;20015;-96
2021/04/01 15:50:44;;;;;;;;;;;;;;;;;;;;;
2021/04/01 15:53:17;;;;;;;1999.90;999.90;;;15.90;79.40;;;;;;5053177;28;20053;-96
2021/04/01 15:58:55;;;;;;;1999.90;999.90;;;15.70;76.60;;;;;;5064732;28;20530;-96
2021/04/01 16:13:15;;;;;;;;;;;;;;;;;;;;;
2021/04/01 16:15:51;;;;;;;1999.90;999.90;;;15.70;76.70;;;;;;5045266;28;20053;-96
2021/04/01 16:18:19;;;;;;;1999.90;999.90;;;15.70;76.80;;;;;;5089757;28;20052;-96
2021/04/01 16:21:21;;;;;;;1999.90;999.90;;;16.00;76.40;;;;;;5114759;28;20116;-96
2021/04/01 16:23:58;;;;;;;1999.90;999.90;;;16.10;74.30;;;;;;5113887;28;20055;-95
2021/04/01 16:33:48;;;;;;;1999.90;999.90;;;16.20;74.50;;;;;;5105926;28;20147;-96
2021/04/01 16:36:18;;;;;;;1999.90;999.90;;;16.40;73.90;;;;;;5115478;28;20051;-96
2021/04/01 16:38:56;;;;;;;1999.90;999.90;;;16.40;72.50;;;;;;5114782;28;20096;-95
2021/04/01 16:41:47;;;;;;;1999.90;999.90;;;16.30;73.20;;;;;;5118485;28;20043;-95
2021/04/01 16:44:23;;;;;;;1999.90;999.90;;;16.30;73.50;;;;;;5122692;28;20125;-96
2021/04/01 16:48:02;;;;;;;1999.90;999.90;;;16.20;73.20;;;;;;5121223;28;20079;-96
2021/04/01 16:50:45;;;;;;;1999.90;999.90;;;15.90;73.20;;;;;;5087794;28;20063;-96
2021/04/01 17:05:43;;;;;;;1999.90;999.90;;;13.80;80.40;;;;;;5085791;28;20054;-96
2021/04/01 17:08:15;;;;;;;1999.90;999.90;;;13.90;80.90;;;;;;5084617;28;20055;-96
2021/04/01 17:10:49;;;;;;;1999.90;999.90;;;14.10;79.70;;;;;;5100040;28;20428;-95
2021/04/01 17:13:28;;;;;;;1999.90;999.90;;;14.30;79.60;;;;;;5098676;28;20528;-94
2021/04/01 17:20:32;;;;;;;1999.90;999.90;;;14.00;79.80;;;;;;5036225;28;20168;-95
2021/04/01 17:34:49;;;;;;;1999.90;999.90;;;11.80;88.70;;;;;;4964625;28;20147;-96
2021/04/01 17:37:21;;;;;;;1999.90;999.90;;;11.50;90.30;;;;;;5063957;28;20170;-96
2021/04/01 17:39:59;;;;;;;1999.90;999.90;;;11.20;90.90;;;;;;5077865;28;20056;-96
2021/04/01 17:42:29;;;;;;;1999.90;999.90;;;11.10;91.50;;;;;;5076794;28;20041;-96
2021/04/01 17:45:04;;;;;;;1999.90;999.90;;;10.90;92.10;;;;;;5068675;28;20260;-96